createdAt,value
2022-10-14T00:03:30.119Z,100464
2022-10-14T00:09:23.705Z,100467
2022-10-14T00:21:38.868Z,100461
2022-10-14T00:27:35.861Z,100458
2022-10-14T00:33:29.363Z,100454
2022-10-14T00:39:23.820Z,100453
2022-10-14T00:45:20.271Z,100450
2022-10-14T00:51:29.354Z,100451
2022-10-14T00:57:26.386Z,100449
2022-10-14T01:03:30.984Z,100451
2022-10-14T01:09:46.913Z,100451
2022-10-14T01:15:52.046Z,100454
2022-10-14T01:22:03.975Z,100447
2022-10-14T01:28:11.251Z,100436
2022-10-14T01:34:26.239Z,100427
2022-10-14T01:40:36.221Z,100419
2022-10-14T01:46:28.923Z,100402
2022-10-14T01:52:25.732Z,100388
2022-10-14T01:58:23.926Z,100383
2022-10-14T02:04:16.992Z,100377
2022-10-14T02:10:38.454Z,100376
2022-10-14T02:16:44.904Z,100373
2022-10-14T02:22:49.202Z,100367
2022-10-14T02:28:41.284Z,100371
2022-10-14T02:34:34.750Z,100357
2022-10-14T02:40:35.029Z,100347
2022-10-14T02:46:52.738Z,100356
2022-10-14T02:52:52.121Z,100352
2022-10-14T02:58:50.620Z,100335
2022-10-14T03:11:20.532Z,100336
2022-10-14T03:17:12.870Z,100333
2022-10-14T03:23:05.479Z,100330
2022-10-14T03:29:00.134Z,100330
2022-10-14T03:34:53.281Z,100328
2022-10-14T03:40:44.831Z,100323
2022-10-14T03:46:36.931Z,100327
2022-10-14T03:52:32.585Z,100328
2022-10-14T03:58:29.124Z,100319
2022-10-14T04:04:23.195Z,100312
2022-10-14T04:10:15.832Z,100304
2022-10-14T04:16:15.522Z,100300
2022-10-14T04:22:18.917Z,100294
2022-10-14T04:34:22.617Z,100279
2022-10-14T04:40:30.869Z,100282
2022-10-14T04:46:27.943Z,100285
2022-10-14T04:52:34.634Z,100274
2022-10-14T04:58:43.353Z,100267
2022-10-14T05:04:44.345Z,100261
2022-10-14T05:10:37.872Z,100267
2022-10-14T05:16:41.915Z,100263
2022-10-14T05:22:45.092Z,100268
2022-10-14T05:28:36.753Z,100252
2022-10-14T05:34:42.862Z,100257
2022-10-14T05:46:56.799Z,100242
2022-10-14T05:52:57.333Z,100235
2022-10-14T05:58:56.716Z,100239
2022-10-14T06:24:11.510Z,100240
2022-10-14T07:45:01.389Z,100191
2022-10-14T07:51:24.998Z,100190
2022-10-14T07:57:28.000Z,100184
2022-10-14T08:03:21.701Z,100180
2022-10-14T08:09:16.968Z,100185
2022-10-14T08:15:16.159Z,100180
2022-10-14T08:21:06.115Z,100172
2022-10-14T08:27:09.443Z,100170
2022-10-14T08:56:44.926Z,100146
2022-10-14T09:02:39.139Z,100134
2022-10-14T09:08:31.171Z,100125
2022-10-14T09:14:24.661Z,100131
2022-10-14T09:20:29.414Z,100121
2022-10-14T09:26:33.309Z,100115
2022-10-14T09:32:45.698Z,100113
2022-10-14T15:53:38.372Z,99797
2022-10-14T15:59:31.532Z,99798
2022-10-14T16:05:26.828Z,99792
2022-10-14T16:11:20.539Z,99793
2022-10-14T16:17:15.094Z,99768
2022-10-14T16:23:09.076Z,99766
2022-10-14T16:29:14.060Z,99769
2022-10-14T16:35:08.741Z,99769
2022-10-14T16:41:04.039Z,99777
2022-10-14T16:46:55.496Z,99782
2022-10-14T16:52:46.190Z,99775
2022-10-14T16:58:40.557Z,99767
2022-10-14T17:04:32.823Z,99763
2022-10-14T17:10:25.665Z,99777
2022-10-14T17:16:17.962Z,99782
2022-10-14T17:22:09.537Z,99775
2022-10-14T17:33:52.972Z,99772
2022-10-14T17:39:48.065Z,99763
2022-10-14T17:51:47.069Z,99750
2022-10-14T17:57:38.016Z,99738
2022-10-14T18:03:27.707Z,99741
2022-10-14T18:09:20.313Z,99751
2022-10-14T18:15:09.403Z,99760
2022-10-14T18:21:03.675Z,99762
2022-10-14T18:26:57.737Z,99770
2022-10-14T18:32:50.320Z,99763
2022-10-14T18:38:42.041Z,99767
2022-10-14T18:44:33.030Z,99745
2022-10-14T18:50:25.833Z,99769
2022-10-14T18:56:17.195Z,99751
2022-10-14T19:02:09.391Z,99746
2022-10-14T19:08:02.222Z,99745
2022-10-14T19:13:53.072Z,99737
2022-10-14T19:19:46.544Z,99738
2022-10-14T19:25:36.973Z,99734
2022-10-14T19:31:28.019Z,99739
2022-10-14T19:37:18.637Z,99748
2022-10-14T19:43:09.848Z,99748
2022-10-14T19:49:01.101Z,99748
2022-10-14T19:54:54.188Z,99743
2022-10-14T20:00:45.170Z,99746
2022-10-14T20:06:37.131Z,99734
2022-10-14T20:12:29.450Z,99727
2022-10-14T20:18:30.055Z,99720
2022-10-14T20:24:36.777Z,99723
2022-10-14T20:30:29.704Z,99727
2022-10-14T20:36:22.721Z,99727
2022-10-14T20:42:15.134Z,99723
2022-10-14T20:48:08.007Z,99698
2022-10-14T20:54:09.680Z,99695
2022-10-14T21:00:02.191Z,99689
2022-10-14T21:05:52.739Z,99687
2022-10-14T21:11:44.177Z,99695
2022-10-14T21:17:36.223Z,99678
2022-10-14T21:23:27.335Z,99680
2022-10-14T21:29:25.641Z,99692
2022-10-14T21:35:16.715Z,99694
2022-10-14T21:41:10.421Z,99682
2022-10-14T21:47:04.802Z,99681
2022-10-14T21:52:57.373Z,99679
2022-10-14T21:58:49.739Z,99671
2022-10-14T22:04:42.472Z,99668
2022-10-14T22:10:37.931Z,99670
2022-10-14T22:16:33.713Z,99659
